Terminal Aerodrome Forecast
Issued by NWS Paducah, KY

Home | Current Version | Previous Version | Text Only | Print | Product List | Glossary Off
Versions: 1 2 3 4 5 6 7 8 9 10 11 12 13

000
FTUS43 KPAH 251700
TAFEVV
TAF
KEVV 251739Z 2518/2618 11004KT P6SM SCT035 SCT250
     FM260800 00000KT 4SM BR FEW250
     FM261100 00000KT 2SM BR FEW250
     FM261230 VRB03KT P6SM SKC=

USA.gov is the U.S. government's official web portal to all federal, state and local government web resources and services.